createdAt,value
2016-06-05T18:40:24.480Z,1009.58
2016-06-05T18:41:24.421Z,1009.59
2016-06-05T18:42:24.423Z,1009.63
2016-06-05T18:43:24.410Z,1009.66
2016-06-05T18:44:24.412Z,1009.63
2016-06-05T18:45:24.415Z,1009.64
2016-06-05T18:46:24.403Z,1009.66
2016-06-05T18:47:24.389Z,1009.67
2016-06-05T18:48:24.392Z,1009.65
2016-06-05T18:49:24.378Z,1009.65
2016-06-05T18:50:24.381Z,1009.67
2016-06-05T18:51:24.385Z,1009.67
2016-06-05T18:52:24.372Z,1009.64
2016-06-05T18:53:24.375Z,1009.65
2016-06-05T18:54:24.362Z,1009.67
2016-06-05T18:55:24.364Z,1009.62
2016-06-05T18:56:24.352Z,1009.63
2016-06-05T18:57:24.355Z,1009.62
2016-06-05T18:58:24.357Z,1009.66
2016-06-05T18:59:24.344Z,1009.67
2016-06-05T19:00:24.330Z,1009.73
2016-06-05T19:01:24.333Z,1009.72
2016-06-05T19:02:24.336Z,1009.74
2016-06-05T19:03:24.338Z,1009.79
2016-06-05T19:04:24.310Z,1009.8
2016-06-05T19:05:24.329Z,1009.81
2016-06-05T19:06:24.316Z,1009.86
2016-06-05T19:07:24.303Z,1009.82
2016-06-05T19:08:24.290Z,1009.86
2016-06-05T19:09:24.293Z,1009.85
2016-06-05T19:10:24.296Z,1009.87
2016-06-05T19:11:24.282Z,1009.88
2016-06-05T19:12:24.285Z,1009.86
2016-06-05T19:13:24.272Z,1009.87
2016-06-05T19:14:24.275Z,1009.87
2016-06-05T19:15:24.262Z,1009.86
2016-06-05T19:16:24.249Z,1009.86
2016-06-05T19:17:24.455Z,1009.91
2016-06-05T19:18:24.239Z,1009.9
2016-06-05T19:19:24.241Z,1009.88
2016-06-05T19:20:24.228Z,1009.88
2016-06-05T19:21:24.231Z,1009.89
2016-06-05T19:22:24.264Z,1009.91
2016-06-05T19:23:24.221Z,1009.9
2016-06-05T19:24:24.208Z,1009.92
2016-06-05T19:25:24.211Z,1009.9
2016-06-05T19:26:24.197Z,1009.92
2016-06-05T19:27:24.185Z,1009.92
2016-06-05T19:28:24.203Z,1009.91
2016-06-05T19:29:24.191Z,1009.91
2016-06-05T19:30:24.177Z,1009.93
2016-06-05T19:31:24.164Z,1009.89
2016-06-05T19:32:24.167Z,1009.94
2016-06-05T19:33:24.154Z,1009.94
2016-06-05T19:34:24.157Z,1009.94
2016-06-05T19:35:24.144Z,1009.91
2016-06-05T19:36:24.146Z,1009.94
2016-06-05T19:37:24.133Z,1009.96
2016-06-05T19:38:24.135Z,1009.96
2016-06-05T19:39:24.123Z,1009.96
2016-06-05T19:40:24.126Z,1009.97
2016-06-05T19:41:24.113Z,1009.99
2016-06-05T19:42:24.100Z,1010.02
2016-06-05T19:43:24.103Z,1010.02
2016-06-05T19:44:24.090Z,1010.06
2016-06-05T19:45:24.093Z,1010.05
2016-06-05T19:46:24.080Z,1010.08
2016-06-05T19:47:24.082Z,1010.1
2016-06-05T19:48:24.069Z,1010.09
2016-06-05T19:49:24.072Z,1010.16
2016-06-05T19:50:24.059Z,1010.11
2016-06-05T19:51:24.046Z,1010.16
2016-06-05T19:52:24.049Z,1010.13
2016-06-05T19:53:24.036Z,1010.16
2016-06-05T19:54:24.038Z,1010.15
2016-06-05T19:55:24.025Z,1010.17
2016-06-05T19:56:24.029Z,1010.23
2016-06-05T19:57:24.016Z,1010.23
2016-06-05T19:58:24.034Z,1010.26
2016-06-05T19:59:24.005Z,1010.28
2016-06-05T20:00:23.991Z,1010.3
2016-06-05T20:01:23.995Z,1010.26
2016-06-05T20:02:23.997Z,1010.26
2016-06-05T20:03:24.032Z,1010.28
2016-06-05T20:04:23.987Z,1010.32
2016-06-05T20:05:23.975Z,1010.34
2016-06-05T20:06:23.961Z,1010.38
2016-06-05T20:07:23.964Z,1010.42
2016-06-05T20:08:23.951Z,1010.43
2016-06-05T20:09:23.954Z,1010.44
2016-06-05T20:10:23.940Z,1010.48
2016-06-05T20:11:23.929Z,1010.53
2016-06-05T20:12:23.931Z,1010.55
2016-06-05T20:13:23.918Z,1010.54
2016-06-05T20:14:23.920Z,1010.55
2016-06-05T20:15:23.908Z,1010.55
2016-06-05T20:16:23.895Z,1010.57
2016-06-05T20:17:23.898Z,1010.55
2016-06-05T20:18:23.884Z,1010.55
2016-06-05T20:19:23.886Z,1010.54
2016-06-05T20:20:23.874Z,1010.57
2016-06-05T20:21:23.877Z,1010.53
2016-06-05T20:22:23.864Z,1010.56
2016-06-05T20:23:23.850Z,1010.57
2016-06-05T20:24:23.854Z,1010.55
2016-06-05T20:25:23.841Z,1010.55
2016-06-05T20:26:23.827Z,1010.55
2016-06-05T20:27:23.830Z,1010.61
2016-06-05T20:28:23.834Z,1010.59
2016-06-05T20:29:23.820Z,1010.63
2016-06-05T20:30:23.808Z,1010.62
2016-06-05T20:31:23.810Z,1010.64
2016-06-05T20:32:23.796Z,1010.65
2016-06-05T20:33:23.783Z,1010.66
2016-06-05T20:34:23.787Z,1010.67
2016-06-05T20:35:23.774Z,1010.65
2016-06-05T20:36:23.776Z,1010.65
2016-06-05T20:43:08.999Z,1010.66
2016-06-05T20:43:15.796Z,1010.68
2016-06-05T20:44:15.799Z,1010.73
2016-06-05T20:45:15.785Z,1010.74
2016-06-05T20:46:15.772Z,1010.74
2016-06-05T20:47:15.759Z,1010.77
2016-06-05T20:48:15.762Z,1010.77
2016-06-05T20:49:15.765Z,1010.78
2016-06-05T20:50:15.752Z,1010.78
2016-06-05T20:51:15.739Z,1010.8
2016-06-05T20:52:15.726Z,1010.79
2016-06-05T20:53:15.729Z,1010.83
2016-06-05T20:54:15.715Z,1010.8
2016-06-05T20:55:15.703Z,1010.81
2016-06-05T20:56:15.706Z,1010.84
